createdAt,value
2023-03-03T00:00:41.279Z,93727.84
2023-03-03T00:01:37.910Z,93741.59
2023-03-03T00:02:34.685Z,93740.56
2023-03-03T00:03:31.584Z,93739.59
2023-03-03T00:04:28.362Z,93739.91
2023-03-03T00:05:25.073Z,93736.97
2023-03-03T00:06:21.718Z,93718.56
2023-03-03T00:07:23.181Z,93737.78
2023-03-03T00:08:21.402Z,93738.31
2023-03-03T00:09:18.163Z,93708.66
2023-03-03T00:10:14.898Z,93731.63
2023-03-03T00:11:11.936Z,93737.19
2023-03-03T00:12:29.054Z,93730.91
2023-03-03T00:13:27.228Z,93742.28
2023-03-03T00:14:30.801Z,93730.94
2023-03-03T00:15:28.706Z,93693.13
2023-03-03T00:16:38.899Z,93734.38
2023-03-03T00:17:35.554Z,93729.34
2023-03-03T00:18:37.392Z,93702.81
2023-03-03T00:19:38.875Z,93711.00
2023-03-03T00:20:39.162Z,93728.84
2023-03-03T00:21:45.199Z,93727.63
2023-03-03T00:22:41.953Z,93727.91
2023-03-03T00:23:40.751Z,93727.25
2023-03-03T00:24:37.978Z,93715.09
2023-03-03T00:25:34.861Z,93729.72
2023-03-03T00:26:36.673Z,93728.19
2023-03-03T00:27:38.420Z,93728.63
2023-03-03T00:28:54.735Z,93669.75
2023-03-03T00:29:55.721Z,93730.91
2023-03-03T00:30:54.007Z,93736.47
2023-03-03T00:31:50.695Z,93720.47
2023-03-03T00:32:47.399Z,93726.97
2023-03-03T00:33:50.687Z,93718.50
2023-03-03T00:34:48.371Z,93729.28
2023-03-03T00:35:45.056Z,93726.75
2023-03-03T00:36:42.306Z,93698.66
2023-03-03T00:37:41.273Z,93723.16
2023-03-03T00:38:37.886Z,93721.94
2023-03-03T00:39:39.205Z,93707.53
2023-03-03T00:40:38.386Z,93721.38
2023-03-03T00:41:37.542Z,93717.13
2023-03-03T00:42:36.280Z,93718.72
2023-03-03T00:43:36.552Z,93678.31
2023-03-03T00:45:00.710Z,93713.56
2023-03-03T00:45:58.642Z,93709.88
2023-03-03T00:46:56.695Z,93707.47
2023-03-03T00:47:53.480Z,93705.25
2023-03-03T00:48:51.526Z,93705.44
2023-03-03T00:49:48.085Z,93700.56
2023-03-03T00:50:44.750Z,93703.72
2023-03-03T00:51:44.151Z,93668.75
2023-03-03T00:52:46.369Z,93697.06
2023-03-03T00:53:42.933Z,93689.97
2023-03-03T00:54:39.491Z,93692.63
2023-03-03T00:55:36.282Z,93695.56
2023-03-03T00:56:32.994Z,93677.78
2023-03-03T00:57:29.977Z,93679.19
2023-03-03T00:58:27.597Z,93618.78
2023-03-03T00:59:24.363Z,93688.41
2023-03-03T01:00:21.123Z,93688.06
2023-03-03T01:01:18.285Z,93657.41
2023-03-03T01:02:14.959Z,93679.75
2023-03-03T01:03:20.749Z,93680.41
2023-03-03T01:04:17.399Z,93680.03
2023-03-03T01:05:15.942Z,93679.19
2023-03-03T01:06:14.314Z,93676.63
2023-03-03T01:07:10.963Z,93676.13
2023-03-03T01:08:07.850Z,93649.66
2023-03-03T01:09:04.507Z,93671.16
2023-03-03T01:10:01.214Z,93674.56
2023-03-03T01:11:04.042Z,93668.09
2023-03-03T01:12:00.889Z,93676.63
2023-03-03T01:12:58.317Z,93666.97
2023-03-03T01:13:55.155Z,93671.19
2023-03-03T01:14:53.146Z,93616.41
2023-03-03T01:15:50.775Z,93662.72
2023-03-03T01:16:47.544Z,93667.44
2023-03-03T01:17:44.244Z,93661.03
2023-03-03T01:18:42.090Z,93667.69
2023-03-03T01:19:38.709Z,93661.47
2023-03-03T01:20:35.339Z,93661.47
2023-03-03T01:21:32.019Z,93660.13
2023-03-03T01:22:28.700Z,93661.19
2023-03-03T01:23:25.303Z,93633.41
2023-03-03T01:24:22.263Z,93631.47
2023-03-03T01:25:18.837Z,93659.25
2023-03-03T01:26:15.461Z,93661.41
2023-03-03T01:27:12.060Z,93657.53
2023-03-03T01:28:08.704Z,93649.09
2023-03-03T01:29:05.467Z,93652.38
2023-03-03T01:30:03.059Z,93659.25
2023-03-03T01:31:04.222Z,93659.22
2023-03-03T01:32:00.900Z,93660.09
2023-03-03T01:32:57.712Z,93664.47
2023-03-03T01:33:54.380Z,93658.00
2023-03-03T01:34:51.332Z,93646.56
2023-03-03T01:35:48.643Z,93659.38
2023-03-03T01:36:45.283Z,93660.00
2023-03-03T01:37:42.011Z,93656.00
2023-03-03T01:38:39.387Z,93625.38
2023-03-03T01:39:36.100Z,93649.97
2023-03-03T01:40:32.987Z,93620.63
2023-03-03T01:41:33.661Z,93657.44
2023-03-03T01:42:30.790Z,93611.72
2023-03-03T01:43:29.607Z,93660.41
2023-03-03T01:44:26.577Z,93667.13
2023-03-03T01:45:26.777Z,93646.44
2023-03-03T01:46:32.467Z,93660.41
2023-03-03T01:47:34.095Z,93660.38
2023-03-03T01:48:44.772Z,93662.13
2023-03-03T01:49:41.332Z,93661.31
2023-03-03T01:51:02.459Z,93659.47
2023-03-03T01:52:02.712Z,93663.25
2023-03-03T01:53:03.448Z,93662.91
2023-03-03T01:54:03.420Z,93663.47
2023-03-03T01:55:04.792Z,93660.59
2023-03-03T01:56:03.095Z,93661.69
2023-03-03T01:57:04.016Z,93661.47
2023-03-03T01:58:13.723Z,93663.28
2023-03-03T01:59:17.480Z,93657.47
2023-03-03T02:00:15.077Z,93653.97
2023-03-03T02:01:17.185Z,93652.47
2023-03-03T02:02:13.864Z,93657.19
2023-03-03T02:03:11.053Z,93599.41
2023-03-03T02:04:08.943Z,93650.69
2023-03-03T02:05:05.962Z,93661.22
2023-03-03T02:06:07.778Z,93645.47
2023-03-03T02:07:10.835Z,93657.72
2023-03-03T02:08:08.849Z,93663.47
2023-03-03T02:09:12.788Z,93658.59
2023-03-03T02:10:13.623Z,93662.91
2023-03-03T02:11:11.158Z,93653.31
2023-03-03T02:12:11.379Z,93654.34
2023-03-03T02:13:08.253Z,93651.69
2023-03-03T02:14:05.310Z,93655.69
2023-03-03T02:15:02.191Z,93652.78
2023-03-03T02:15:59.216Z,93656.69
2023-03-03T02:16:56.164Z,93638.56
2023-03-03T02:17:55.949Z,93656.47
2023-03-03T02:18:52.702Z,93653.41
2023-03-03T02:20:06.438Z,93660.06
2023-03-03T02:21:21.574Z,93654.03
2023-03-03T02:22:24.038Z,93646.13
2023-03-03T02:23:33.934Z,93659.53
2023-03-03T02:24:47.322Z,93653.69
2023-03-03T02:25:58.451Z,93651.97
2023-03-03T02:26:56.106Z,93574.16
2023-03-03T02:27:53.085Z,93623.91
2023-03-03T02:28:50.507Z,93629.97
2023-03-03T02:29:47.121Z,93646.31
2023-03-03T02:30:44.207Z,93654.63
2023-03-03T02:31:40.892Z,93658.34
2023-03-03T02:32:37.734Z,93654.34
2023-03-03T02:33:34.416Z,93654.34
2023-03-03T02:34:30.974Z,93645.81
2023-03-03T02:35:31.612Z,93646.44
2023-03-03T02:36:33.449Z,93644.09
2023-03-03T02:37:30.350Z,93643.31
2023-03-03T02:38:34.058Z,93583.75
2023-03-03T02:39:30.645Z,93647.13
2023-03-03T02:40:31.618Z,93642.41
2023-03-03T02:41:49.444Z,93646.13
2023-03-03T02:42:48.419Z,93645.78
2023-03-03T02:44:06.379Z,93649.22
2023-03-03T02:45:02.952Z,93621.88
2023-03-03T02:45:59.607Z,93617.06
2023-03-03T02:46:57.846Z,93639.44
2023-03-03T02:47:54.521Z,93647.88
2023-03-03T02:48:51.144Z,93643.97
2023-03-03T02:49:47.857Z,93646.44
2023-03-03T02:50:44.547Z,93645.66
2023-03-03T02:51:41.636Z,93641.69
2023-03-03T02:52:38.223Z,93649.94
2023-03-03T02:53:34.807Z,93639.34
2023-03-03T02:54:32.067Z,93648.94
2023-03-03T02:55:28.634Z,93587.47
2023-03-03T02:56:25.523Z,93647.34
2023-03-03T02:57:22.114Z,93635.69
2023-03-03T02:58:19.051Z,93639.31
2023-03-03T02:59:16.458Z,93606.44
2023-03-03T03:00:13.290Z,93641.63
2023-03-03T03:01:09.991Z,93639.59
2023-03-03T03:02:07.705Z,93634.31
2023-03-03T03:03:04.427Z,93638.66
2023-03-03T03:04:01.054Z,93637.09
2023-03-03T03:04:57.729Z,93637.81
2023-03-03T03:05:54.335Z,93638.03
2023-03-03T03:06:51.840Z,93629.06
2023-03-03T03:07:48.449Z,93637.91
2023-03-03T03:08:45.236Z,93631.78
2023-03-03T03:09:42.251Z,93634.75
2023-03-03T03:10:38.831Z,93637.97
2023-03-03T03:11:35.847Z,93638.09
2023-03-03T03:12:32.814Z,93606.59
2023-03-03T03:13:31.137Z,93628.88
2023-03-03T03:14:28.409Z,93645.66
2023-03-03T03:15:25.056Z,93634.75
2023-03-03T03:16:21.762Z,93642.19
2023-03-03T03:17:18.579Z,93649.50
2023-03-03T03:18:15.993Z,93641.16
2023-03-03T03:19:12.708Z,93642.22
2023-03-03T03:20:09.896Z,93641.00
2023-03-03T03:21:08.678Z,93634.97
2023-03-03T03:22:05.309Z,93641.91
2023-03-03T03:23:01.872Z,93642.91
2023-03-03T03:23:58.637Z,93635.72
2023-03-03T03:24:55.366Z,93633.09
2023-03-03T03:25:52.108Z,93587.44
2023-03-03T03:26:48.808Z,93629.66
2023-03-03T03:27:45.468Z,93627.50
2023-03-03T03:28:42.084Z,93628.03
2023-03-03T03:29:38.818Z,93629.16
2023-03-03T03:30:36.105Z,93602.53
2023-03-03T03:31:32.766Z,93615.50
2023-03-03T03:32:29.442Z,93630.78
2023-03-03T03:33:28.266Z,93631.53
2023-03-03T03:34:24.938Z,93611.81
2023-03-03T03:35:21.569Z,93630.31
2023-03-03T03:36:18.147Z,93628.94
2023-03-03T03:37:14.833Z,93582.25
2023-03-03T03:38:12.442Z,93632.38
2023-03-03T03:39:09.264Z,93626.03
2023-03-03T03:40:06.523Z,93623.69
2023-03-03T03:41:04.560Z,93620.97
2023-03-03T03:42:01.138Z,93623.38
2023-03-03T03:42:57.707Z,93621.59
2023-03-03T03:43:54.330Z,93624.09
2023-03-03T03:44:51.673Z,93620.75
2023-03-03T03:45:49.039Z,93621.09
2023-03-03T03:46:45.779Z,93620.50
2023-03-03T03:47:43.747Z,93620.75
2023-03-03T03:48:40.506Z,93615.09
2023-03-03T03:49:37.153Z,93612.44
2023-03-03T03:50:33.885Z,93608.03
2023-03-03T03:51:31.303Z,93614.97
2023-03-03T03:52:27.882Z,93624.72
2023-03-03T03:53:24.485Z,93619.09
2023-03-03T03:54:21.145Z,93597.56
2023-03-03T03:55:17.829Z,93616.69
2023-03-03T03:56:14.524Z,93578.50
2023-03-03T03:57:11.224Z,93621.59
2023-03-03T03:58:07.847Z,93611.59
2023-03-03T03:59:07.036Z,93618.75
2023-03-03T04:00:05.754Z,93615.47
2023-03-03T04:01:07.344Z,93591.13
2023-03-03T04:02:04.075Z,93606.53
2023-03-03T04:03:00.851Z,93615.81
2023-03-03T04:03:57.681Z,93607.34
2023-03-03T04:04:54.315Z,93612.72
2023-03-03T04:05:53.346Z,93575.56
2023-03-03T04:06:49.892Z,93601.22
2023-03-03T04:07:46.459Z,93610.31
2023-03-03T04:08:43.387Z,93606.41
2023-03-03T04:09:39.996Z,93612.91
2023-03-03T04:10:37.076Z,93610.72
2023-03-03T04:11:33.668Z,93597.50
2023-03-03T04:12:30.262Z,93614.25
2023-03-03T04:13:29.004Z,93551.72
2023-03-03T04:14:25.621Z,93602.94
2023-03-03T04:15:22.234Z,93607.13
2023-03-03T04:16:18.786Z,93589.88
2023-03-03T04:17:22.833Z,93611.19
2023-03-03T04:18:19.478Z,93613.50
2023-03-03T04:19:16.154Z,93593.25
2023-03-03T04:20:16.456Z,93611.44
2023-03-03T04:21:14.896Z,93613.09
2023-03-03T04:22:13.681Z,93605.34
2023-03-03T04:23:10.785Z,93616.38
2023-03-03T04:24:07.814Z,93577.53
2023-03-03T04:25:06.238Z,93609.28
2023-03-03T04:26:02.802Z,93614.25
2023-03-03T04:26:59.406Z,93609.78
2023-03-03T04:27:55.967Z,93609.69
2023-03-03T04:28:52.583Z,93611.41
2023-03-03T04:29:49.279Z,93609.41
2023-03-03T04:30:45.983Z,93607.47
2023-03-03T04:31:42.615Z,93583.22
2023-03-03T04:32:39.214Z,93610.06
2023-03-03T04:33:36.208Z,93612.19
2023-03-03T04:34:32.959Z,93610.28
2023-03-03T04:35:29.524Z,93610.28
2023-03-03T04:36:26.225Z,93609.25
2023-03-03T04:37:22.919Z,93576.84
2023-03-03T04:38:19.582Z,93606.63
2023-03-03T04:39:16.166Z,93521.97
2023-03-03T04:40:12.856Z,93604.91
2023-03-03T04:41:12.420Z,93609.03
2023-03-03T04:42:09.010Z,93606.91
2023-03-03T04:43:05.661Z,93602.25
2023-03-03T04:44:02.241Z,93604.66
2023-03-03T04:44:58.895Z,93599.72
2023-03-03T04:45:55.553Z,93597.06
2023-03-03T04:46:52.186Z,93603.41
2023-03-03T04:47:48.869Z,93595.41
2023-03-03T04:48:45.509Z,93600.53
2023-03-03T04:49:42.877Z,93559.09
2023-03-03T04:50:39.545Z,93602.69
2023-03-03T04:51:36.227Z,93600.59
2023-03-03T04:52:32.897Z,93601.69
2023-03-03T04:53:29.484Z,93605.28
2023-03-03T04:54:26.169Z,93597.84
2023-03-03T04:55:22.761Z,93603.09
2023-03-03T04:56:19.359Z,93604.97
2023-03-03T04:57:15.925Z,93606.19
2023-03-03T04:58:12.749Z,93607.16
2023-03-03T04:59:09.534Z,93607.50
2023-03-03T05:00:07.008Z,93605.19
2023-03-03T05:01:03.623Z,93588.66
2023-03-03T05:02:00.229Z,93605.78
2023-03-03T05:02:56.903Z,93607.34
2023-03-03T05:03:53.474Z,93606.56
2023-03-03T05:04:50.051Z,93580.16
2023-03-03T05:05:48.215Z,93605.66
2023-03-03T05:06:44.793Z,93601.66
2023-03-03T05:07:41.391Z,93607.09
2023-03-03T05:08:38.078Z,93604.03
2023-03-03T05:09:34.694Z,93604.63
2023-03-03T05:10:31.266Z,93608.75
2023-03-03T05:11:27.851Z,93604.28
2023-03-03T05:12:24.704Z,93612.09
2023-03-03T05:13:21.495Z,93603.41
2023-03-03T05:14:18.100Z,93610.81
2023-03-03T05:15:14.688Z,93615.09
2023-03-03T05:16:11.595Z,93594.91
2023-03-03T05:17:08.673Z,93614.81
2023-03-03T05:18:05.475Z,93614.06
2023-03-03T05:19:02.001Z,93612.97
2023-03-03T05:20:01.828Z,93611.88
2023-03-03T05:20:58.418Z,93611.28
2023-03-03T05:21:55.433Z,93608.50
2023-03-03T05:22:52.172Z,93615.03
2023-03-03T05:23:48.747Z,93578.66
2023-03-03T05:24:49.092Z,93615.03
2023-03-03T05:25:48.350Z,93609.41
2023-03-03T05:26:44.941Z,93620.66
2023-03-03T05:27:41.607Z,93618.53
2023-03-03T05:28:38.231Z,93615.41
2023-03-03T05:29:34.971Z,93620.75
2023-03-03T05:30:31.610Z,93613.38
2023-03-03T05:31:28.213Z,93597.69
2023-03-03T05:32:24.869Z,93622.09
2023-03-03T05:33:21.422Z,93617.19
2023-03-03T05:34:18.025Z,93620.38
2023-03-03T05:35:14.598Z,93619.41
2023-03-03T05:36:11.138Z,93621.25
2023-03-03T05:37:07.787Z,93606.50
2023-03-03T05:38:05.455Z,93586.44
2023-03-03T05:39:02.361Z,93626.88
2023-03-03T05:39:59.030Z,93618.53
2023-03-03T05:40:55.604Z,93617.16
2023-03-03T05:41:52.167Z,93623.19
2023-03-03T05:42:48.787Z,93606.31
2023-03-03T05:43:45.523Z,93578.44
2023-03-03T05:44:42.111Z,93622.03
2023-03-03T05:45:38.849Z,93621.41
2023-03-03T05:46:35.772Z,93605.72
2023-03-03T05:47:32.425Z,93621.72
2023-03-03T05:48:29.250Z,93623.09
2023-03-03T05:49:26.476Z,93619.38
2023-03-03T05:50:23.815Z,93624.00
2023-03-03T05:51:20.396Z,93622.47
2023-03-03T05:52:16.969Z,93620.44
2023-03-03T05:53:13.600Z,93623.81
2023-03-03T05:54:10.260Z,93621.69
2023-03-03T05:55:07.289Z,93588.19
2023-03-03T05:56:04.143Z,93629.16
2023-03-03T05:57:00.906Z,93558.84
2023-03-03T05:57:57.603Z,93632.44
2023-03-03T05:58:54.167Z,93626.44
2023-03-03T05:59:50.784Z,93633.44
2023-03-03T06:00:47.667Z,93628.94
2023-03-03T06:01:44.283Z,93631.88
2023-03-03T06:02:42.307Z,93629.72
2023-03-03T06:03:39.177Z,93625.81
2023-03-03T06:04:35.778Z,93633.50
2023-03-03T06:05:32.454Z,93633.06
2023-03-03T06:06:29.202Z,93632.91
2023-03-03T06:07:25.775Z,93630.22
2023-03-03T06:08:22.460Z,93587.72
2023-03-03T06:09:19.253Z,93621.75
2023-03-03T06:10:16.210Z,93630.78
2023-03-03T06:11:13.713Z,93632.22
2023-03-03T06:12:10.372Z,93627.97
2023-03-03T06:13:06.980Z,93626.03
2023-03-03T06:14:03.549Z,93620.03
2023-03-03T06:15:00.176Z,93629.25
2023-03-03T06:15:56.746Z,93631.09
2023-03-03T06:16:53.388Z,93628.34
2023-03-03T06:17:50.102Z,93537.63
2023-03-03T06:18:46.747Z,93604.91
2023-03-03T06:19:43.362Z,93627.34
2023-03-03T06:20:40.065Z,93631.63
2023-03-03T06:21:36.606Z,93636.38
2023-03-03T06:22:33.211Z,93615.75
2023-03-03T06:23:30.077Z,93634.78
2023-03-03T06:24:30.248Z,93631.16
2023-03-03T06:25:27.329Z,93618.03
2023-03-03T06:26:23.906Z,93634.50
2023-03-03T06:27:20.479Z,93639.63
2023-03-03T06:28:18.237Z,93634.31
2023-03-03T06:29:15.861Z,93640.50
2023-03-03T06:30:13.060Z,93638.63
2023-03-03T06:31:09.713Z,93646.72
2023-03-03T06:32:06.434Z,93618.75
2023-03-03T06:33:03.173Z,93641.44
2023-03-03T06:33:59.768Z,93626.22
2023-03-03T06:34:56.392Z,93634.28
2023-03-03T06:35:54.432Z,93635.88
2023-03-03T06:36:52.303Z,93640.50
2023-03-03T06:37:50.935Z,93643.25
2023-03-03T06:38:47.716Z,93644.63
2023-03-03T06:39:44.564Z,93640.72
2023-03-03T06:40:41.162Z,93640.19
2023-03-03T06:41:38.473Z,93555.22
2023-03-03T06:42:35.093Z,93648.13
2023-03-03T06:43:31.690Z,93636.44
2023-03-03T06:44:28.941Z,93628.44
2023-03-03T06:45:25.806Z,93642.91
2023-03-03T06:46:22.875Z,93635.63
2023-03-03T06:47:19.522Z,93617.78
2023-03-03T06:48:16.081Z,93641.59
2023-03-03T06:49:12.676Z,93609.28
2023-03-03T06:50:12.083Z,93632.56
2023-03-03T06:51:22.657Z,93647.06
2023-03-03T06:52:24.593Z,93635.88
2023-03-03T06:53:21.221Z,93634.66
2023-03-03T06:54:21.057Z,93649.75
2023-03-03T06:55:23.629Z,93647.56
2023-03-03T06:56:20.217Z,93650.53
2023-03-03T06:57:34.313Z,93574.31
2023-03-03T06:58:31.350Z,93651.47
2023-03-03T06:59:28.896Z,93647.75
2023-03-03T07:00:30.694Z,93648.97
2023-03-03T07:01:30.742Z,93599.22
2023-03-03T07:02:27.460Z,93648.06
2023-03-03T07:03:28.328Z,93651.94
2023-03-03T07:04:33.567Z,93658.44
2023-03-03T07:05:30.367Z,93651.31
2023-03-03T07:06:28.343Z,93659.09
2023-03-03T07:07:26.620Z,93650.72
2023-03-03T07:08:24.712Z,93652.72
2023-03-03T07:09:25.412Z,93654.47
2023-03-03T07:10:28.148Z,93654.50
2023-03-03T07:11:24.849Z,93653.06
2023-03-03T07:12:22.910Z,93653.06
2023-03-03T07:13:28.193Z,93648.56
2023-03-03T07:14:24.793Z,93650.44
2023-03-03T07:15:35.003Z,93647.78
2023-03-03T07:16:31.715Z,93640.94
2023-03-03T07:17:28.407Z,93651.19
2023-03-03T07:18:35.280Z,93647.94
2023-03-03T07:19:35.238Z,93646.53
2023-03-03T07:20:38.664Z,93647.59
2023-03-03T07:21:36.997Z,93653.09
2023-03-03T07:22:33.748Z,93651.19
2023-03-03T07:23:42.872Z,93647.63
2023-03-03T07:24:39.958Z,93645.31
2023-03-03T07:25:36.820Z,93638.66
2023-03-03T07:26:33.619Z,93624.81
2023-03-03T07:27:32.113Z,93622.16
2023-03-03T07:28:33.020Z,93638.19
2023-03-03T07:29:33.415Z,93648.44
2023-03-03T07:30:30.252Z,93625.09
2023-03-03T07:31:36.720Z,93640.34
2023-03-03T07:32:45.062Z,93622.19
2023-03-03T07:33:45.806Z,93638.97
2023-03-03T07:34:47.883Z,93641.13
2023-03-03T07:35:45.336Z,93636.03
2023-03-03T07:36:42.007Z,93635.09
2023-03-03T07:37:41.440Z,93646.28
2023-03-03T07:38:45.558Z,93636.94
2023-03-03T07:39:45.504Z,93640.97
2023-03-03T07:40:49.634Z,93645.50
2023-03-03T07:41:46.325Z,93611.13
2023-03-03T07:42:44.384Z,93640.03
2023-03-03T07:43:55.070Z,93642.00
2023-03-03T07:44:54.091Z,93641.53
2023-03-03T07:45:51.254Z,93627.72
2023-03-03T07:46:49.379Z,93643.25
2023-03-03T07:47:46.015Z,93639.53
2023-03-03T07:48:46.267Z,93586.97
2023-03-03T07:49:43.347Z,93635.75
2023-03-03T07:50:41.032Z,93637.97
2023-03-03T07:51:42.189Z,93635.00
2023-03-03T07:52:42.045Z,93634.84
2023-03-03T07:53:38.747Z,93633.97
2023-03-03T07:54:36.236Z,93633.22
2023-03-03T07:55:40.180Z,93634.84
2023-03-03T07:56:36.867Z,93640.78
2023-03-03T07:57:39.897Z,93644.41
2023-03-03T07:58:39.425Z,93641.72
2023-03-03T07:59:37.708Z,93534.53
2023-03-03T08:01:16.380Z,93634.72
2023-03-03T08:02:55.472Z,93631.81
2023-03-03T08:03:52.664Z,93635.97
2023-03-03T08:04:52.530Z,93638.63
2023-03-03T08:05:50.822Z,93631.19
2023-03-03T08:06:53.358Z,93629.41
2023-03-03T08:07:50.789Z,93632.69
2023-03-03T08:08:47.417Z,93626.22
2023-03-03T08:09:51.165Z,93584.69
2023-03-03T08:10:55.725Z,93620.13
2023-03-03T08:11:57.532Z,93632.41
2023-03-03T08:12:55.642Z,93634.09
2023-03-03T08:13:52.234Z,93631.88
2023-03-03T08:14:52.600Z,93626.78
2023-03-03T08:15:52.607Z,93619.38
2023-03-03T08:16:49.295Z,93610.31
2023-03-03T08:17:46.922Z,93617.13
2023-03-03T08:18:47.789Z,93624.00
2023-03-03T08:19:44.399Z,93599.44
2023-03-03T08:20:49.296Z,93602.72
2023-03-03T08:21:46.526Z,93630.19
2023-03-03T08:22:43.614Z,93628.59
2023-03-03T08:23:41.115Z,93623.22
2023-03-03T08:24:38.627Z,93621.81
2023-03-03T08:25:35.374Z,93625.38
2023-03-03T08:26:32.468Z,93626.50
2023-03-03T08:27:29.045Z,93631.00
2023-03-03T08:28:25.731Z,93607.56
2023-03-03T08:29:22.389Z,93626.50
2023-03-03T08:30:19.089Z,93631.34
2023-03-03T08:31:30.902Z,93595.59
2023-03-03T08:32:31.367Z,93628.97
2023-03-03T08:33:28.441Z,93625.25
2023-03-03T08:34:25.060Z,93623.22
2023-03-03T08:35:21.846Z,93621.84
2023-03-03T08:36:19.269Z,93626.19
2023-03-03T08:37:15.858Z,93616.38
2023-03-03T08:38:17.839Z,93621.81
2023-03-03T08:39:14.431Z,93624.94
2023-03-03T08:40:11.536Z,93620.00
2023-03-03T08:41:08.400Z,93601.34
2023-03-03T08:42:05.010Z,93606.09
2023-03-03T08:43:01.828Z,93580.25
2023-03-03T08:43:58.642Z,93617.69
2023-03-03T08:44:55.260Z,93617.47
2023-03-03T08:45:53.805Z,93616.56
2023-03-03T08:46:50.441Z,93616.19
2023-03-03T08:47:47.056Z,93613.94
2023-03-03T08:48:43.645Z,93616.56
2023-03-03T08:49:40.211Z,93619.56
2023-03-03T08:50:38.467Z,93574.84
2023-03-03T08:51:35.202Z,93622.75
2023-03-03T08:52:31.774Z,93623.34
2023-03-03T08:53:29.227Z,93621.00
2023-03-03T08:54:25.828Z,93624.13
2023-03-03T08:55:22.848Z,93620.38
2023-03-03T08:56:19.478Z,93616.63
2023-03-03T08:57:17.074Z,93619.44
2023-03-03T08:58:17.151Z,93619.66
2023-03-03T08:59:13.789Z,93614.94
2023-03-03T09:00:14.280Z,93625.28
2023-03-03T09:01:10.933Z,93624.97
2023-03-03T09:02:08.487Z,93627.00
2023-03-03T09:03:08.595Z,93614.38
2023-03-03T09:04:05.357Z,93621.84
2023-03-03T09:05:02.024Z,93616.66
2023-03-03T09:05:58.626Z,93625.31
2023-03-03T09:06:55.265Z,93613.31
2023-03-03T09:07:52.557Z,93620.91
2023-03-03T09:08:49.469Z,93592.69
2023-03-03T09:09:46.103Z,93621.25
2023-03-03T09:10:42.722Z,93627.28
2023-03-03T09:11:43.621Z,93619.78
2023-03-03T09:12:43.297Z,93626.06
2023-03-03T09:13:40.292Z,93618.38
2023-03-03T09:14:36.882Z,93623.34
2023-03-03T09:15:36.153Z,93618.72
2023-03-03T09:16:39.257Z,93609.97
2023-03-03T09:17:37.856Z,93619.69
2023-03-03T09:18:39.044Z,93624.38
2023-03-03T09:19:37.578Z,93614.69
2023-03-03T09:20:42.565Z,93619.91
2023-03-03T09:21:41.079Z,93595.66
2023-03-03T09:22:38.281Z,93624.88
2023-03-03T09:23:39.969Z,93622.66
2023-03-03T09:24:37.218Z,93617.63
2023-03-03T09:25:36.715Z,93625.63
2023-03-03T09:26:39.405Z,93625.44
2023-03-03T09:27:37.262Z,93617.25
2023-03-03T09:28:34.274Z,93610.94
2023-03-03T09:29:37.343Z,93617.31
2023-03-03T09:30:46.025Z,93623.94
2023-03-03T09:31:44.155Z,93616.69
2023-03-03T09:32:43.205Z,93620.72
2023-03-03T09:33:47.090Z,93617.47
2023-03-03T09:34:43.824Z,93613.00
2023-03-03T09:35:41.897Z,93617.56
2023-03-03T09:36:38.892Z,93597.69
2023-03-03T09:37:40.555Z,93613.78
2023-03-03T09:38:41.946Z,93621.84
2023-03-03T09:39:38.580Z,93618.00
2023-03-03T09:41:10.742Z,93619.25
2023-03-03T09:42:25.207Z,93614.88
2023-03-03T09:43:54.797Z,93613.28
2023-03-03T09:45:22.886Z,93611.34
2023-03-03T09:46:33.924Z,93616.41
2023-03-03T09:48:12.360Z,93622.84
2023-03-03T09:49:11.702Z,93617.69
2023-03-03T09:50:12.978Z,93618.94
2023-03-03T09:51:30.566Z,93620.44
2023-03-03T09:53:04.027Z,93618.84
2023-03-03T09:54:24.358Z,93613.16
2023-03-03T09:55:50.459Z,93611.59
2023-03-03T09:57:08.110Z,93613.53
2023-03-03T09:58:55.128Z,93609.81
2023-03-03T10:00:13.408Z,93613.09
2023-03-03T10:01:25.073Z,93604.63
2023-03-03T10:02:59.204Z,93611.19
2023-03-03T10:04:05.221Z,93613.13
2023-03-03T10:05:15.247Z,93615.94
2023-03-03T10:06:25.441Z,93611.94
2023-03-03T10:07:45.155Z,93608.53
2023-03-03T10:09:09.457Z,93619.84
2023-03-03T10:10:38.898Z,93607.63
2023-03-03T10:11:49.997Z,93604.34
2023-03-03T10:12:53.736Z,93606.34
2023-03-03T10:14:10.403Z,93606.22
2023-03-03T10:15:28.081Z,93608.00
2023-03-03T10:16:39.753Z,93604.69
2023-03-03T10:17:53.252Z,93575.22
2023-03-03T10:19:02.535Z,93551.78
2023-03-03T10:20:14.999Z,93607.78
2023-03-03T10:21:22.558Z,93596.31
2023-03-03T10:22:35.048Z,93610.41
2023-03-03T10:24:09.382Z,93598.66
2023-03-03T10:25:17.776Z,93608.75
2023-03-03T10:26:44.811Z,93597.97
2023-03-03T10:27:59.068Z,93601.38
2023-03-03T10:29:22.155Z,93600.19
2023-03-03T10:30:48.569Z,93598.97
2023-03-03T10:32:32.966Z,93595.00
2023-03-03T10:34:19.621Z,93601.16
2023-03-03T10:35:32.195Z,93590.19
2023-03-03T10:36:51.918Z,93580.97
2023-03-03T10:38:03.480Z,93592.56
2023-03-03T10:39:18.018Z,93597.56
2023-03-03T10:40:25.134Z,93595.19
2023-03-03T10:41:33.970Z,93588.19
2023-03-03T10:42:51.578Z,93593.91
2023-03-03T10:44:06.241Z,93590.28
2023-03-03T10:45:31.031Z,93596.09
2023-03-03T10:46:36.721Z,93593.34
2023-03-03T10:47:53.959Z,93583.31
2023-03-03T10:49:17.143Z,93588.13
2023-03-03T10:50:17.211Z,93590.56
2023-03-03T10:51:16.721Z,93585.50
2023-03-03T10:52:35.133Z,93582.84
2023-03-03T10:53:41.530Z,93581.59
2023-03-03T10:54:44.102Z,93575.00
2023-03-03T10:55:50.158Z,93574.16
2023-03-03T10:57:02.630Z,93577.63
2023-03-03T10:58:32.987Z,93576.94
2023-03-03T11:00:01.028Z,93574.81
2023-03-03T11:01:18.111Z,93578.25
2023-03-03T11:02:40.161Z,93564.09
2023-03-03T11:04:04.180Z,93575.09
2023-03-03T11:05:15.468Z,93572.66
2023-03-03T11:06:47.265Z,93576.31
2023-03-03T11:08:09.458Z,93574.06
2023-03-03T11:09:24.547Z,93572.28
2023-03-03T11:10:27.032Z,93568.28
2023-03-03T11:11:23.465Z,93564.44
2023-03-03T11:12:57.601Z,93564.03
2023-03-03T11:13:54.139Z,93563.91
2023-03-03T11:15:08.899Z,93564.84
2023-03-03T11:16:20.265Z,93565.59
2023-03-03T11:17:23.730Z,93562.72
2023-03-03T11:18:32.254Z,93564.22
2023-03-03T11:19:41.240Z,93564.13
2023-03-03T11:20:44.063Z,93565.72
2023-03-03T11:21:55.505Z,93562.50
2023-03-03T11:23:08.698Z,93559.28
2023-03-03T11:24:08.411Z,93562.56
2023-03-03T11:25:24.184Z,93543.50
2023-03-03T11:26:58.086Z,93555.63
2023-03-03T11:28:12.969Z,93549.00
2023-03-03T11:29:28.335Z,93551.75
2023-03-03T11:30:34.390Z,93544.06
2023-03-03T11:31:49.006Z,93548.25
2023-03-03T11:33:18.066Z,93547.19
2023-03-03T11:34:48.624Z,93545.06
2023-03-03T11:36:10.868Z,93530.28
2023-03-03T11:37:12.132Z,93541.25
2023-03-03T11:38:18.632Z,93545.19
2023-03-03T11:39:22.485Z,93540.81
2023-03-03T11:40:27.995Z,93539.75
2023-03-03T11:41:58.663Z,93543.03
2023-03-03T11:43:01.510Z,93542.19
2023-03-03T11:44:23.903Z,93535.72
2023-03-03T11:45:31.353Z,93539.47
2023-03-03T11:46:42.277Z,93545.53
2023-03-03T11:47:52.643Z,93542.00
2023-03-03T11:49:09.443Z,93545.22
2023-03-03T11:50:06.105Z,93542.25
2023-03-03T11:51:11.143Z,93536.09
2023-03-03T11:52:22.894Z,93541.41
2023-03-03T11:53:50.487Z,93536.16
2023-03-03T11:55:11.918Z,93536.81
2023-03-03T11:56:40.004Z,93536.97
2023-03-03T11:58:08.303Z,93539.28
2023-03-03T11:59:13.880Z,93533.84
2023-03-03T12:00:19.306Z,93532.72